sensor_id;sensor_type;location;lat;lon;timestamp;temperature;humidity
53695;DHT22;39588;51.124;7.190;2023-06-24T00:00:58;18.50;97.30
53695;DHT22;39588;51.124;7.190;2023-06-24T00:03:24;18.40;97.30
53695;DHT22;39588;51.124;7.190;2023-06-24T00:05:49;18.40;97.10
53695;DHT22;39588;51.124;7.190;2023-06-24T00:08:19;18.40;97.20
53695;DHT22;39588;51.124;7.190;2023-06-24T00:10:46;18.40;97.40
53695;DHT22;39588;51.124;7.190;2023-06-24T00:13:13;18.30;97.30
53695;DHT22;39588;51.124;7.190;2023-06-24T00:18:11;18.30;97.60
53695;DHT22;39588;51.124;7.190;2023-06-24T00:20:37;18.30;97.50
53695;DHT22;39588;51.124;7.190;2023-06-24T00:23:03;18.20;97.60
53695;DHT22;39588;51.124;7.190;2023-06-24T00:25:29;18.20;97.50
53695;DHT22;39588;51.124;7.190;2023-06-24T00:27:55;18.20;97.50
53695;DHT22;39588;51.124;7.190;2023-06-24T00:30:22;18.20;97.40
53695;DHT22;39588;51.124;7.190;2023-06-24T00:32:48;18.20;97.40
53695;DHT22;39588;51.124;7.190;2023-06-24T00:35:14;18.10;97.30
53695;DHT22;39588;51.124;7.190;2023-06-24T00:37:41;18.10;97.40
53695;DHT22;39588;51.124;7.190;2023-06-24T00:42:40;18.10;97.50
53695;DHT22;39588;51.124;7.190;2023-06-24T00:45:08;18.00;97.50
53695;DHT22;39588;51.124;7.190;2023-06-24T00:47:34;18.00;97.60
53695;DHT22;39588;51.124;7.190;2023-06-24T00:49:59;18.00;97.40
53695;DHT22;39588;51.124;7.190;2023-06-24T00:52:25;18.00;97.50
53695;DHT22;39588;51.124;7.190;2023-06-24T00:57:17;18.00;97.40
53695;DHT22;39588;51.124;7.190;2023-06-24T00:59:49;17.90;97.50
53695;DHT22;39588;51.124;7.190;2023-06-24T01:02:20;17.90;97.50
53695;DHT22;39588;51.124;7.190;2023-06-24T01:04:47;17.90;97.70
53695;DHT22;39588;51.124;7.190;2023-06-24T01:07:14;17.90;97.80
53695;DHT22;39588;51.124;7.190;2023-06-24T01:14:35;17.90;97.90
53695;DHT22;39588;51.124;7.190;2023-06-24T01:17:15;17.80;97.90
53695;DHT22;39588;51.124;7.190;2023-06-24T01:20:03;17.80;97.90
53695;DHT22;39588;51.124;7.190;2023-06-24T01:31:48;17.60;97.80
53695;DHT22;39588;51.124;7.190;2023-06-24T01:39:34;17.60;98.30
53695;DHT22;39588;51.124;7.190;2023-06-24T01:42:11;17.60;98.30
53695;DHT22;39588;51.124;7.190;2023-06-24T01:44:42;17.50;98.00
53695;DHT22;39588;51.124;7.190;2023-06-24T01:47:09;17.50;98.00
53695;DHT22;39588;51.124;7.190;2023-06-24T01:49:40;17.50;98.10
53695;DHT22;39588;51.124;7.190;2023-06-24T01:52:08;17.50;98.30
53695;DHT22;39588;51.124;7.190;2023-06-24T01:54:35;17.50;98.10
53695;DHT22;39588;51.124;7.190;2023-06-24T01:57:03;17.50;98.20
53695;DHT22;39588;51.124;7.190;2023-06-24T01:59:31;17.50;98.20
53695;DHT22;39588;51.124;7.190;2023-06-24T02:01:58;17.50;98.20
53695;DHT22;39588;51.124;7.190;2023-06-24T02:04:27;17.50;98.30
53695;DHT22;39588;51.124;7.190;2023-06-24T02:07:02;17.40;98.20
53695;DHT22;39588;51.124;7.190;2023-06-24T02:09:29;17.40;98.30
53695;DHT22;39588;51.124;7.190;2023-06-24T02:11:57;17.40;98.40
53695;DHT22;39588;51.124;7.190;2023-06-24T02:14:24;17.40;98.50
53695;DHT22;39588;51.124;7.190;2023-06-24T02:16:50;17.40;98.60
53695;DHT22;39588;51.124;7.190;2023-06-24T02:19:24;17.40;98.70
53695;DHT22;39588;51.124;7.190;2023-06-24T02:21:53;17.40;98.70
53695;DHT22;39588;51.124;7.190;2023-06-24T02:26:46;17.30;98.50
53695;DHT22;39588;51.124;7.190;2023-06-24T02:29:13;17.30;98.70
53695;DHT22;39588;51.124;7.190;2023-06-24T02:31:39;17.30;98.70
53695;DHT22;39588;51.124;7.190;2023-06-24T02:34:05;17.30;98.60
53695;DHT22;39588;51.124;7.190;2023-06-24T02:36:31;17.20;98.70
53695;DHT22;39588;51.124;7.190;2023-06-24T02:38:57;17.20;98.70
53695;DHT22;39588;51.124;7.190;2023-06-24T02:46:15;17.20;98.80
53695;DHT22;39588;51.124;7.190;2023-06-24T02:48:42;17.20;98.80
53695;DHT22;39588;51.124;7.190;2023-06-24T02:52:52;17.20;98.70
53695;DHT22;39588;51.124;7.190;2023-06-24T02:55:18;17.20;98.60
53695;DHT22;39588;51.124;7.190;2023-06-24T02:57:44;17.20;98.60
53695;DHT22;39588;51.124;7.190;2023-06-24T03:00:10;17.10;98.60
53695;DHT22;39588;51.124;7.190;2023-06-24T03:02:43;17.10;98.40
53695;DHT22;39588;51.124;7.190;2023-06-24T03:05:10;17.10;98.50
53695;DHT22;39588;51.124;7.190;2023-06-24T03:07:37;17.10;98.50
53695;DHT22;39588;51.124;7.190;2023-06-24T03:10:04;17.10;98.60
53695;DHT22;39588;51.124;7.190;2023-06-24T03:12:31;17.10;98.70
53695;DHT22;39588;51.124;7.190;2023-06-24T03:14:57;17.10;98.80
53695;DHT22;39588;51.124;7.190;2023-06-24T03:17:23;17.10;98.80
53695;DHT22;39588;51.124;7.190;2023-06-24T03:19:50;17.10;98.70
53695;DHT22;39588;51.124;7.190;2023-06-24T03:22:16;17.10;98.80
53695;DHT22;39588;51.124;7.190;2023-06-24T03:24:42;17.10;98.70
53695;DHT22;39588;51.124;7.190;2023-06-24T03:27:08;17.10;98.70
53695;DHT22;39588;51.124;7.190;2023-06-24T03:29:34;17.10;98.70
53695;DHT22;39588;51.124;7.190;2023-06-24T03:36:53;17.10;98.80
53695;DHT22;39588;51.124;7.190;2023-06-24T03:39:20;17.10;98.80
53695;DHT22;39588;51.124;7.190;2023-06-24T03:41:46;17.10;99.00
53695;DHT22;39588;51.124;7.190;2023-06-24T03:44:11;17.10;99.00
53695;DHT22;39588;51.124;7.190;2023-06-24T03:46:37;17.10;98.80
53695;DHT22;39588;51.124;7.190;2023-06-24T03:51:29;17.10;98.70
53695;DHT22;39588;51.124;7.190;2023-06-24T03:53:54;17.20;98.60
53695;DHT22;39588;51.124;7.190;2023-06-24T03:58:46;17.20;98.70
53695;DHT22;39588;51.124;7.190;2023-06-24T04:01:12;17.30;98.70
53695;DHT22;39588;51.124;7.190;2023-06-24T04:03:37;17.30;98.70
53695;DHT22;39588;51.124;7.190;2023-06-24T04:10:56;17.40;98.50
53695;DHT22;39588;51.124;7.190;2023-06-24T04:13:21;17.40;98.50
53695;DHT22;39588;51.124;7.190;2023-06-24T04:20:40;17.50;98.50
53695;DHT22;39588;51.124;7.190;2023-06-24T04:25:34;17.60;98.60
53695;DHT22;39588;51.124;7.190;2023-06-24T04:28:00;17.60;98.50
53695;DHT22;39588;51.124;7.190;2023-06-24T04:32:51;17.60;98.50
53695;DHT22;39588;51.124;7.190;2023-06-24T04:40:09;17.80;98.40
53695;DHT22;39588;51.124;7.190;2023-06-24T04:42:35;17.80;98.40
53695;DHT22;39588;51.124;7.190;2023-06-24T04:45:00;17.90;98.40
53695;DHT22;39588;51.124;7.190;2023-06-24T04:52:23;18.10;98.40
53695;DHT22;39588;51.124;7.190;2023-06-24T04:54:49;18.20;98.30
53695;DHT22;39588;51.124;7.190;2023-06-24T04:57:27;18.20;98.20
53695;DHT22;39588;51.124;7.190;2023-06-24T04:59:53;18.30;98.20
53695;DHT22;39588;51.124;7.190;2023-06-24T05:02:18;18.40;98.00
53695;DHT22;39588;51.124;7.190;2023-06-24T05:04:44;18.40;98.00
53695;DHT22;39588;51.124;7.190;2023-06-24T05:07:10;18.50;98.10
53695;DHT22;39588;51.124;7.190;2023-06-24T05:09:35;18.50;98.00
53695;DHT22;39588;51.124;7.190;2023-06-24T05:12:04;18.60;98.00
53695;DHT22;39588;51.124;7.190;2023-06-24T05:14:30;18.70;97.90
53695;DHT22;39588;51.124;7.190;2023-06-24T05:16:56;18.70;98.00
53695;DHT22;39588;51.124;7.190;2023-06-24T05:19:21;18.70;97.80
53695;DHT22;39588;51.124;7.190;2023-06-24T05:29:05;18.90;98.20
53695;DHT22;39588;51.124;7.190;2023-06-24T05:31:30;18.90;97.80
53695;DHT22;39588;51.124;7.190;2023-06-24T05:33:56;18.90;98.00
53695;DHT22;39588;51.124;7.190;2023-06-24T05:36:22;19.00;97.90
53695;DHT22;39588;51.124;7.190;2023-06-24T05:41:14;19.20;97.80
53695;DHT22;39588;51.124;7.190;2023-06-24T05:53:24;19.90;98.10
53695;DHT22;39588;51.124;7.190;2023-06-24T05:55:50;20.00;97.90
53695;DHT22;39588;51.124;7.190;2023-06-24T06:00:41;20.20;97.60
53695;DHT22;39588;51.124;7.190;2023-06-24T06:03:07;20.20;97.40
53695;DHT22;39588;51.124;7.190;2023-06-24T06:05:33;20.20;97.70
53695;DHT22;39588;51.124;7.190;2023-06-24T06:15:18;20.50;97.50
53695;DHT22;39588;51.124;7.190;2023-06-24T06:17:45;20.60;98.10
53695;DHT22;39588;51.124;7.190;2023-06-24T06:22:37;20.90;97.40
53695;DHT22;39588;51.124;7.190;2023-06-24T06:25:07;21.00;97.40
53695;DHT22;39588;51.124;7.190;2023-06-24T06:27:33;21.10;97.50
53695;DHT22;39588;51.124;7.190;2023-06-24T06:29:59;21.40;97.60
53695;DHT22;39588;51.124;7.190;2023-06-24T06:32:24;21.60;97.40
53695;DHT22;39588;51.124;7.190;2023-06-24T06:34:50;21.80;97.60
53695;DHT22;39588;51.124;7.190;2023-06-24T06:51:54;22.30;97.10
53695;DHT22;39588;51.124;7.190;2023-06-24T06:54:20;22.40;97.00
53695;DHT22;39588;51.124;7.190;2023-06-24T06:56:46;22.80;97.00
53695;DHT22;39588;51.124;7.190;2023-06-24T06:59:12;23.20;96.20
53695;DHT22;39588;51.124;7.190;2023-06-24T07:01:37;23.50;96.20
53695;DHT22;39588;51.124;7.190;2023-06-24T07:04:03;23.70;95.90
53695;DHT22;39588;51.124;7.190;2023-06-24T07:06:28;23.80;96.10
53695;DHT22;39588;51.124;7.190;2023-06-24T07:13:46;23.70;95.50
53695;DHT22;39588;51.124;7.190;2023-06-24T07:16:12;23.60;95.90
53695;DHT22;39588;51.124;7.190;2023-06-24T07:18:37;23.60;96.00
53695;DHT22;39588;51.124;7.190;2023-06-24T07:21:03;23.70;96.20
53695;DHT22;39588;51.124;7.190;2023-06-24T07:30:46;24.20;96.00
53695;DHT22;39588;51.124;7.190;2023-06-24T07:33:13;24.30;95.00
53695;DHT22;39588;51.124;7.190;2023-06-24T07:35:39;24.30;95.30
53695;DHT22;39588;51.124;7.190;2023-06-24T07:38:04;24.40;95.90
53695;DHT22;39588;51.124;7.190;2023-06-24T07:40:30;24.50;95.40
53695;DHT22;39588;51.124;7.190;2023-06-24T07:47:48;24.20;95.40
53695;DHT22;39588;51.124;7.190;2023-06-24T07:50:14;24.10;94.90
53695;DHT22;39588;51.124;7.190;2023-06-24T07:52:39;24.10;95.70
53695;DHT22;39588;51.124;7.190;2023-06-24T07:55:05;24.30;95.80
53695;DHT22;39588;51.124;7.190;2023-06-24T07:57:31;24.50;95.40
53695;DHT22;39588;51.124;7.190;2023-06-24T07:59:56;24.70;95.10
53695;DHT22;39588;51.124;7.190;2023-06-24T08:02:22;24.80;95.10
53695;DHT22;39588;51.124;7.190;2023-06-24T08:04:50;25.00;95.50
53695;DHT22;39588;51.124;7.190;2023-06-24T08:07:16;25.20;95.10
53695;DHT22;39588;51.124;7.190;2023-06-24T08:09:41;25.30;94.50
53695;DHT22;39588;51.124;7.190;2023-06-24T08:12:07;25.40;94.90
53695;DHT22;39588;51.124;7.190;2023-06-24T08:14:33;25.60;95.00
53695;DHT22;39588;51.124;7.190;2023-06-24T08:16:59;25.70;94.90
53695;DHT22;39588;51.124;7.190;2023-06-24T08:31:34;25.90;93.60
53695;DHT22;39588;51.124;7.190;2023-06-24T08:34:00;25.80;94.30
53695;DHT22;39588;51.124;7.190;2023-06-24T08:36:28;25.80;93.90
53695;DHT22;39588;51.124;7.190;2023-06-24T08:43:46;26.10;94.60
53695;DHT22;39588;51.124;7.190;2023-06-24T08:46:14;26.20;93.70
53695;DHT22;39588;51.124;7.190;2023-06-24T08:48:42;26.30;94.00
53695;DHT22;39588;51.124;7.190;2023-06-24T08:51:09;26.50;93.60
53695;DHT22;39588;51.124;7.190;2023-06-24T08:53:37;26.60;93.60
53695;DHT22;39588;51.124;7.190;2023-06-24T08:56:04;26.60;93.10
53695;DHT22;39588;51.124;7.190;2023-06-24T08:58:30;26.70;92.70
53695;DHT22;39588;51.124;7.190;2023-06-24T09:03:22;26.80;92.80
53695;DHT22;39588;51.124;7.190;2023-06-24T09:05:48;26.80;92.30
53695;DHT22;39588;51.124;7.190;2023-06-24T09:10:41;26.90;92.70
53695;DHT22;39588;51.124;7.190;2023-06-24T09:13:07;27.00;91.90
53695;DHT22;39588;51.124;7.190;2023-06-24T09:15:37;27.10;92.10
53695;DHT22;39588;51.124;7.190;2023-06-24T09:18:04;27.20;92.30
53695;DHT22;39588;51.124;7.190;2023-06-24T09:20:31;27.30;91.60
53695;DHT22;39588;51.124;7.190;2023-06-24T09:23:03;27.20;91.50
53695;DHT22;39588;51.124;7.190;2023-06-24T09:25:30;26.90;90.30
53695;DHT22;39588;51.124;7.190;2023-06-24T09:28:02;26.70;90.70
53695;DHT22;39588;51.124;7.190;2023-06-24T09:32:55;26.70;91.20
53695;DHT22;39588;51.124;7.190;2023-06-24T09:35:25;26.70;91.20
53695;DHT22;39588;51.124;7.190;2023-06-24T09:37:52;26.80;90.60
53695;DHT22;39588;51.124;7.190;2023-06-24T09:40:18;26.90;89.90
53695;DHT22;39588;51.124;7.190;2023-06-24T09:42:52;26.80;89.60
53695;DHT22;39588;51.124;7.190;2023-06-24T09:45:25;26.60;90.80
53695;DHT22;39588;51.124;7.190;2023-06-24T09:52:44;26.70;90.00
53695;DHT22;39588;51.124;7.190;2023-06-24T09:55:13;26.70;91.10
53695;DHT22;39588;51.124;7.190;2023-06-24T09:57:45;26.50;89.50
53695;DHT22;39588;51.124;7.190;2023-06-24T10:00:12;26.60;91.80
53695;DHT22;39588;51.124;7.190;2023-06-24T10:02:40;27.00;90.00
53695;DHT22;39588;51.124;7.190;2023-06-24T10:05:07;27.20;89.40
53695;DHT22;39588;51.124;7.190;2023-06-24T10:07:34;26.90;87.70
53695;DHT22;39588;51.124;7.190;2023-06-24T10:10:02;26.60;88.10
53695;DHT22;39588;51.124;7.190;2023-06-24T10:12:28;26.80;88.60
53695;DHT22;39588;51.124;7.190;2023-06-24T10:14:54;27.20;90.50
53695;DHT22;39588;51.124;7.190;2023-06-24T10:24:40;27.70;84.90
53695;DHT22;39588;51.124;7.190;2023-06-24T10:27:08;27.80;85.00
53695;DHT22;39588;51.124;7.190;2023-06-24T10:32:05;27.60;87.30
53695;DHT22;39588;51.124;7.190;2023-06-24T10:37:21;28.30;85.80
53695;DHT22;39588;51.124;7.190;2023-06-24T10:39:58;28.20;82.60
53695;DHT22;39588;51.124;7.190;2023-06-24T10:44:58;27.70;82.90
53695;DHT22;39588;51.124;7.190;2023-06-24T10:47:24;27.70;81.60
53695;DHT22;39588;51.124;7.190;2023-06-24T10:49:50;27.60;81.10
53695;DHT22;39588;51.124;7.190;2023-06-24T10:52:19;27.40;80.40
53695;DHT22;39588;51.124;7.190;2023-06-24T10:54:46;27.10;80.10
53695;DHT22;39588;51.124;7.190;2023-06-24T10:57:12;27.10;78.60
53695;DHT22;39588;51.124;7.190;2023-06-24T10:59:47;27.10;80.90
53695;DHT22;39588;51.124;7.190;2023-06-24T11:02:15;27.40;80.90
53695;DHT22;39588;51.124;7.190;2023-06-24T11:04:49;27.60;80.20
53695;DHT22;39588;51.124;7.190;2023-06-24T11:07:17;27.30;76.00
53695;DHT22;39588;51.124;7.190;2023-06-24T11:10:13;27.30;78.90
53695;DHT22;39588;51.124;7.190;2023-06-24T11:12:42;27.50;77.90
53695;DHT22;39588;51.124;7.190;2023-06-24T11:15:13;27.50;75.70
53695;DHT22;39588;51.124;7.190;2023-06-24T11:17:39;27.60;77.90
53695;DHT22;39588;51.124;7.190;2023-06-24T11:20:10;27.50;76.60
53695;DHT22;39588;51.124;7.190;2023-06-24T11:22:37;27.20;77.20
53695;DHT22;39588;51.124;7.190;2023-06-24T11:25:03;26.80;76.60
53695;DHT22;39588;51.124;7.190;2023-06-24T11:27:30;26.90;76.30
53695;DHT22;39588;51.124;7.190;2023-06-24T11:29:59;26.90;76.50
53695;DHT22;39588;51.124;7.190;2023-06-24T11:32:38;27.00;77.20
53695;DHT22;39588;51.124;7.190;2023-06-24T11:35:05;27.00;72.40
53695;DHT22;39588;51.124;7.190;2023-06-24T11:37:32;27.00;71.70
53695;DHT22;39588;51.124;7.190;2023-06-24T11:40:07;27.10;75.20
53695;DHT22;39588;51.124;7.190;2023-06-24T11:42:42;27.90;73.50
53695;DHT22;39588;51.124;7.190;2023-06-24T11:45:13;27.10;72.40
53695;DHT22;39588;51.124;7.190;2023-06-24T11:47:40;27.00;71.90
53695;DHT22;39588;51.124;7.190;2023-06-24T11:50:07;26.90;70.10
53695;DHT22;39588;51.124;7.190;2023-06-24T11:52:45;26.70;70.60
53695;DHT22;39588;51.124;7.190;2023-06-24T11:58:06;26.80;73.90
53695;DHT22;39588;51.124;7.190;2023-06-24T12:00:39;26.90;73.60
53695;DHT22;39588;51.124;7.190;2023-06-24T12:03:09;27.10;73.80
53695;DHT22;39588;51.124;7.190;2023-06-24T12:05:36;27.30;73.20
53695;DHT22;39588;51.124;7.190;2023-06-24T12:08:05;27.20;72.50
53695;DHT22;39588;51.124;7.190;2023-06-24T12:10:32;27.30;72.30
53695;DHT22;39588;51.124;7.190;2023-06-24T12:13:00;27.40;72.50
53695;DHT22;39588;51.124;7.190;2023-06-24T12:15:26;27.40;73.50
53695;DHT22;39588;51.124;7.190;2023-06-24T12:20:18;27.50;71.40
53695;DHT22;39588;51.124;7.190;2023-06-24T12:22:44;27.30;67.10
53695;DHT22;39588;51.124;7.190;2023-06-24T12:25:10;27.20;66.30
53695;DHT22;39588;51.124;7.190;2023-06-24T12:27:37;27.10;67.20
53695;DHT22;39588;51.124;7.190;2023-06-24T12:30:03;27.00;62.30
53695;DHT22;39588;51.124;7.190;2023-06-24T12:32:29;26.90;58.80
53695;DHT22;39588;51.124;7.190;2023-06-24T12:34:54;26.70;57.30
53695;DHT22;39588;51.124;7.190;2023-06-24T12:39:46;26.70;58.20
53695;DHT22;39588;51.124;7.190;2023-06-24T12:47:05;26.90;58.60
53695;DHT22;39588;51.124;7.190;2023-06-24T12:51:56;27.10;61.60
53695;DHT22;39588;51.124;7.190;2023-06-24T12:54:22;27.20;60.30
53695;DHT22;39588;51.124;7.190;2023-06-24T12:56:47;27.10;57.10
53695;DHT22;39588;51.124;7.190;2023-06-24T13:04:10;26.90;57.70
53695;DHT22;39588;51.124;7.190;2023-06-24T13:06:35;27.00;57.50
53695;DHT22;39588;51.124;7.190;2023-06-24T13:11:28;27.00;54.60
53695;DHT22;39588;51.124;7.190;2023-06-24T13:18:45;26.70;53.90
53695;DHT22;39588;51.124;7.190;2023-06-24T13:21:11;26.90;56.60
53695;DHT22;39588;51.124;7.190;2023-06-24T13:23:36;27.00;57.30
53695;DHT22;39588;51.124;7.190;2023-06-24T13:28:30;27.00;54.50
53695;DHT22;39588;51.124;7.190;2023-06-24T13:30:57;27.00;56.60
53695;DHT22;39588;51.124;7.190;2023-06-24T13:33:23;27.00;59.00
53695;DHT22;39588;51.124;7.190;2023-06-24T13:35:48;27.00;55.40
53695;DHT22;39588;51.124;7.190;2023-06-24T13:38:15;27.00;53.20
53695;DHT22;39588;51.124;7.190;2023-06-24T13:40:40;26.90;53.20
53695;DHT22;39588;51.124;7.190;2023-06-24T13:45:32;26.90;54.60
53695;DHT22;39588;51.124;7.190;2023-06-24T13:48:01;26.80;53.60
53695;DHT22;39588;51.124;7.190;2023-06-24T13:50:27;26.60;52.90
53695;DHT22;39588;51.124;7.190;2023-06-24T13:55:20;26.70;56.50
53695;DHT22;39588;51.124;7.190;2023-06-24T13:57:46;26.70;55.60
53695;DHT22;39588;51.124;7.190;2023-06-24T14:00:12;26.70;56.00
53695;DHT22;39588;51.124;7.190;2023-06-24T14:02:39;26.60;56.20
53695;DHT22;39588;51.124;7.190;2023-06-24T14:05:05;26.80;58.80
53695;DHT22;39588;51.124;7.190;2023-06-24T14:07:31;26.90;57.40
53695;DHT22;39588;51.124;7.190;2023-06-24T14:12:22;27.00;56.20
53695;DHT22;39588;51.124;7.190;2023-06-24T14:14:48;27.00;55.50
53695;DHT22;39588;51.124;7.190;2023-06-24T14:17:14;27.00;58.20
53695;DHT22;39588;51.124;7.190;2023-06-24T14:19:40;27.20;56.60
53695;DHT22;39588;51.124;7.190;2023-06-24T14:22:06;27.00;55.60
53695;DHT22;39588;51.124;7.190;2023-06-24T14:24:32;27.00;57.40
53695;DHT22;39588;51.124;7.190;2023-06-24T14:26:58;27.00;58.10
53695;DHT22;39588;51.124;7.190;2023-06-24T14:29:24;27.10;57.60
53695;DHT22;39588;51.124;7.190;2023-06-24T14:31:51;27.00;55.10
53695;DHT22;39588;51.124;7.190;2023-06-24T14:34:17;26.90;55.90
53695;DHT22;39588;51.124;7.190;2023-06-24T14:36:43;27.00;57.50
53695;DHT22;39588;51.124;7.190;2023-06-24T14:39:09;27.00;54.70
53695;DHT22;39588;51.124;7.190;2023-06-24T14:41:34;27.00;57.10
53695;DHT22;39588;51.124;7.190;2023-06-24T14:53:44;27.10;54.80
53695;DHT22;39588;51.124;7.190;2023-06-24T14:56:10;27.10;55.00
53695;DHT22;39588;51.124;7.190;2023-06-24T14:58:35;27.30;55.80
53695;DHT22;39588;51.124;7.190;2023-06-24T15:01:01;27.20;53.50
53695;DHT22;39588;51.124;7.190;2023-06-24T15:03:26;27.20;51.90
53695;DHT22;39588;51.124;7.190;2023-06-24T15:05:52;27.20;52.10
53695;DHT22;39588;51.124;7.190;2023-06-24T15:08:17;27.20;50.90
53695;DHT22;39588;51.124;7.190;2023-06-24T15:20:27;26.80;52.30
53695;DHT22;39588;51.124;7.190;2023-06-24T15:22:52;26.90;52.00
53695;DHT22;39588;51.124;7.190;2023-06-24T15:25:18;27.00;51.90
53695;DHT22;39588;51.124;7.190;2023-06-24T15:30:10;27.00;53.80
53695;DHT22;39588;51.124;7.190;2023-06-24T15:35:05;27.20;53.00
53695;DHT22;39588;51.124;7.190;2023-06-24T15:37:31;27.30;52.10
53695;DHT22;39588;51.124;7.190;2023-06-24T15:39:56;27.30;50.90
53695;DHT22;39588;51.124;7.190;2023-06-24T15:47:15;27.30;51.70
53695;DHT22;39588;51.124;7.190;2023-06-24T15:49:40;27.30;49.90
53695;DHT22;39588;51.124;7.190;2023-06-24T15:52:06;27.30;50.60
53695;DHT22;39588;51.124;7.190;2023-06-24T15:54:32;27.20;49.20
53695;DHT22;39588;51.124;7.190;2023-06-24T15:56:57;27.10;48.80
53695;DHT22;39588;51.124;7.190;2023-06-24T15:59:23;27.10;51.20
53695;DHT22;39588;51.124;7.190;2023-06-24T16:04:15;27.20;51.80
53695;DHT22;39588;51.124;7.190;2023-06-24T16:06:40;27.30;51.30
53695;DHT22;39588;51.124;7.190;2023-06-24T16:09:06;27.30;50.50
53695;DHT22;39588;51.124;7.190;2023-06-24T16:11:31;27.30;49.80
53695;DHT22;39588;51.124;7.190;2023-06-24T16:16:23;27.30;47.40
53695;DHT22;39588;51.124;7.190;2023-06-24T16:18:49;27.40;47.30
53695;DHT22;39588;51.124;7.190;2023-06-24T16:21:15;27.40;47.30
53695;DHT22;39588;51.124;7.190;2023-06-24T16:23:40;27.40;48.10
53695;DHT22;39588;51.124;7.190;2023-06-24T16:26:06;27.40;46.60
53695;DHT22;39588;51.124;7.190;2023-06-24T16:30:57;27.30;48.50
53695;DHT22;39588;51.124;7.190;2023-06-24T16:33:23;27.20;46.00
53695;DHT22;39588;51.124;7.190;2023-06-24T16:35:49;27.20;45.10
53695;DHT22;39588;51.124;7.190;2023-06-24T16:38:14;27.10;43.90
53695;DHT22;39588;51.124;7.190;2023-06-24T16:43:07;27.00;42.80
53695;DHT22;39588;51.124;7.190;2023-06-24T16:45:32;27.00;43.40
53695;DHT22;39588;51.124;7.190;2023-06-24T16:47:58;27.00;44.00
53695;DHT22;39588;51.124;7.190;2023-06-24T16:50:24;27.00;44.70
53695;DHT22;39588;51.124;7.190;2023-06-24T16:52:49;27.00;45.40
53695;DHT22;39588;51.124;7.190;2023-06-24T16:55:15;26.90;44.70
53695;DHT22;39588;51.124;7.190;2023-06-24T17:02:33;26.90;46.70
53695;DHT22;39588;51.124;7.190;2023-06-24T17:12:17;27.00;47.50
53695;DHT22;39588;51.124;7.190;2023-06-24T17:14:42;26.90;48.10
53695;DHT22;39588;51.124;7.190;2023-06-24T17:17:08;26.80;45.80
53695;DHT22;39588;51.124;7.190;2023-06-24T17:19:34;26.70;45.40
53695;DHT22;39588;51.124;7.190;2023-06-24T17:22:00;26.70;45.90
53695;DHT22;39588;51.124;7.190;2023-06-24T17:24:26;26.70;46.90
53695;DHT22;39588;51.124;7.190;2023-06-24T17:29:17;26.70;45.30
53695;DHT22;39588;51.124;7.190;2023-06-24T17:31:43;26.70;45.60
53695;DHT22;39588;51.124;7.190;2023-06-24T17:34:08;26.70;46.50
53695;DHT22;39588;51.124;7.190;2023-06-24T17:36:34;26.80;48.00
53695;DHT22;39588;51.124;7.190;2023-06-24T17:41:26;26.70;48.00
53695;DHT22;39588;51.124;7.190;2023-06-24T17:43:52;26.60;49.50
53695;DHT22;39588;51.124;7.190;2023-06-24T17:46:18;26.70;46.70
53695;DHT22;39588;51.124;7.190;2023-06-24T17:48:44;26.60;45.40
53695;DHT22;39588;51.124;7.190;2023-06-24T17:53:35;26.60;46.50
53695;DHT22;39588;51.124;7.190;2023-06-24T17:56:01;26.60;47.00
53695;DHT22;39588;51.124;7.190;2023-06-24T17:58:26;26.50;46.70
53695;DHT22;39588;51.124;7.190;2023-06-24T18:00:52;26.40;47.70
53695;DHT22;39588;51.124;7.190;2023-06-24T18:03:18;26.40;47.40
53695;DHT22;39588;51.124;7.190;2023-06-24T18:05:43;26.30;47.70
53695;DHT22;39588;51.124;7.190;2023-06-24T18:10:36;26.20;48.70
53695;DHT22;39588;51.124;7.190;2023-06-24T18:13:03;26.10;48.80
53695;DHT22;39588;51.124;7.190;2023-06-24T18:15:29;26.10;47.60
53695;DHT22;39588;51.124;7.190;2023-06-24T18:17:54;26.00;49.20
53695;DHT22;39588;51.124;7.190;2023-06-24T18:20:20;26.00;49.60
53695;DHT22;39588;51.124;7.190;2023-06-24T18:30:08;25.70;50.50
53695;DHT22;39588;51.124;7.190;2023-06-24T18:32:33;25.60;49.70
53695;DHT22;39588;51.124;7.190;2023-06-24T18:39:51;25.50;50.20
53695;DHT22;39588;51.124;7.190;2023-06-24T18:42:17;25.40;50.10
53695;DHT22;39588;51.124;7.190;2023-06-24T18:44:43;25.40;49.70
53695;DHT22;39588;51.124;7.190;2023-06-24T18:47:08;25.30;50.10
53695;DHT22;39588;51.124;7.190;2023-06-24T18:54:26;25.20;52.10
53695;DHT22;39588;51.124;7.190;2023-06-24T18:56:52;25.10;52.60
53695;DHT22;39588;51.124;7.190;2023-06-24T19:01:44;25.00;51.40
53695;DHT22;39588;51.124;7.190;2023-06-24T19:04:12;23.50;50.10
53695;DHT22;39588;51.124;7.190;2023-06-24T19:06:38;24.90;52.10
53695;DHT22;39588;51.124;7.190;2023-06-24T19:09:04;24.90;52.90
53695;DHT22;39588;51.124;7.190;2023-06-24T19:13:56;24.70;57.60
53695;DHT22;39588;51.124;7.190;2023-06-24T19:18:49;24.60;60.30
53695;DHT22;39588;51.124;7.190;2023-06-24T19:21:15;24.50;60.70
53695;DHT22;39588;51.124;7.190;2023-06-24T19:33:26;24.00;60.60
53695;DHT22;39588;51.124;7.190;2023-06-24T19:43:10;23.50;60.00
53695;DHT22;39588;51.124;7.190;2023-06-24T19:45:35;23.50;59.50
53695;DHT22;39588;51.124;7.190;2023-06-24T19:48:02;23.40;60.90
53695;DHT22;39588;51.124;7.190;2023-06-24T19:50:27;23.30;61.00
53695;DHT22;39588;51.124;7.190;2023-06-24T19:52:53;23.20;59.90
53695;DHT22;39588;51.124;7.190;2023-06-24T19:55:19;23.20;60.30
53695;DHT22;39588;51.124;7.190;2023-06-24T19:57:45;23.10;60.90
53695;DHT22;39588;51.124;7.190;2023-06-24T20:09:54;22.90;58.40
53695;DHT22;39588;51.124;7.190;2023-06-24T20:12:20;22.90;59.00
53695;DHT22;39588;51.124;7.190;2023-06-24T20:14:46;22.90;59.80
53695;DHT22;39588;51.124;7.190;2023-06-24T20:17:11;22.80;59.50
53695;DHT22;39588;51.124;7.190;2023-06-24T20:19:38;22.80;61.00
53695;DHT22;39588;51.124;7.190;2023-06-24T20:22:04;22.70;60.90
53695;DHT22;39588;51.124;7.190;2023-06-24T20:24:30;22.70;60.90
53695;DHT22;39588;51.124;7.190;2023-06-24T20:31:48;22.60;60.00
53695;DHT22;39588;51.124;7.190;2023-06-24T20:43:58;22.50;61.70
53695;DHT22;39588;51.124;7.190;2023-06-24T20:46:25;22.40;62.00
53695;DHT22;39588;51.124;7.190;2023-06-24T20:48:51;22.30;61.60
53695;DHT22;39588;51.124;7.190;2023-06-24T20:51:16;22.30;62.70
53695;DHT22;39588;51.124;7.190;2023-06-24T20:56:09;22.20;62.60
53695;DHT22;39588;51.124;7.190;2023-06-24T20:58:39;22.20;63.00
53695;DHT22;39588;51.124;7.190;2023-06-24T21:01:06;22.20;62.60
53695;DHT22;39588;51.124;7.190;2023-06-24T21:03:34;22.10;62.40
53695;DHT22;39588;51.124;7.190;2023-06-24T21:06:00;22.10;61.80
53695;DHT22;39588;51.124;7.190;2023-06-24T21:08:26;22.10;62.70
53695;DHT22;39588;51.124;7.190;2023-06-24T21:10:51;22.10;62.90